sensor_id;sensor_type;location;lat;lon;timestamp;P1;durP1;ratioP1;P2;durP2;ratioP2
57746;SDS011;43580;44.014;20.466;2023-11-19T00:02:20;11.55;;;5.65;;
57746;SDS011;43580;44.014;20.466;2023-11-19T00:04:47;8.63;;;5.32;;
57746;SDS011;43580;44.014;20.466;2023-11-19T00:07:13;10.40;;;6.38;;
57746;SDS011;43580;44.014;20.466;2023-11-19T00:09:39;11.27;;;6.25;;
57746;SDS011;43580;44.014;20.466;2023-11-19T00:12:06;9.20;;;6.28;;
57746;SDS011;43580;44.014;20.466;2023-11-19T00:14:32;12.95;;;6.55;;
57746;SDS011;43580;44.014;20.466;2023-11-19T00:16:59;9.15;;;5.85;;
57746;SDS011;43580;44.014;20.466;2023-11-19T00:19:25;9.13;;;4.72;;
57746;SDS011;43580;44.014;20.466;2023-11-19T00:21:52;11.43;;;6.72;;
57746;SDS011;43580;44.014;20.466;2023-11-19T00:24:18;12.35;;;6.82;;
57746;SDS011;43580;44.014;20.466;2023-11-19T00:26:47;11.40;;;6.47;;
57746;SDS011;43580;44.014;20.466;2023-11-19T00:29:13;20.15;;;10.30;;
57746;SDS011;43580;44.014;20.466;2023-11-19T00:31:39;12.52;;;7.25;;
57746;SDS011;43580;44.014;20.466;2023-11-19T00:34:05;17.73;;;9.40;;
57746;SDS011;43580;44.014;20.466;2023-11-19T00:36:31;11.85;;;6.20;;
57746;SDS011;43580;44.014;20.466;2023-11-19T00:38:57;8.88;;;6.00;;
57746;SDS011;43580;44.014;20.466;2023-11-19T00:41:23;10.55;;;6.00;;
57746;SDS011;43580;44.014;20.466;2023-11-19T00:43:50;10.63;;;6.55;;
57746;SDS011;43580;44.014;20.466;2023-11-19T00:46:16;13.35;;;7.90;;
57746;SDS011;43580;44.014;20.466;2023-11-19T00:48:42;12.65;;;7.78;;
57746;SDS011;43580;44.014;20.466;2023-11-19T00:51:08;10.43;;;6.25;;
57746;SDS011;43580;44.014;20.466;2023-11-19T00:53:37;12.68;;;7.30;;
57746;SDS011;43580;44.014;20.466;2023-11-19T00:56:03;11.85;;;7.85;;
57746;SDS011;43580;44.014;20.466;2023-11-19T00:58:30;9.52;;;6.38;;
57746;SDS011;43580;44.014;20.466;2023-11-19T01:00:57;10.75;;;6.40;;
57746;SDS011;43580;44.014;20.466;2023-11-19T01:03:23;12.88;;;6.75;;
57746;SDS011;43580;44.014;20.466;2023-11-19T01:05:51;12.48;;;6.80;;
57746;SDS011;43580;44.014;20.466;2023-11-19T01:08:17;9.95;;;6.13;;
57746;SDS011;43580;44.014;20.466;2023-11-19T01:10:44;10.68;;;6.25;;
57746;SDS011;43580;44.014;20.466;2023-11-19T01:13:10;9.52;;;5.70;;
57746;SDS011;43580;44.014;20.466;2023-11-19T01:15:38;10.95;;;6.35;;
57746;SDS011;43580;44.014;20.466;2023-11-19T01:18:06;11.13;;;6.03;;
57746;SDS011;43580;44.014;20.466;2023-11-19T01:20:34;9.48;;;6.15;;
57746;SDS011;43580;44.014;20.466;2023-11-19T01:23:02;11.13;;;6.13;;
57746;SDS011;43580;44.014;20.466;2023-11-19T01:25:29;10.65;;;6.80;;
57746;SDS011;43580;44.014;20.466;2023-11-19T01:27:55;8.52;;;5.45;;
57746;SDS011;43580;44.014;20.466;2023-11-19T01:30:24;10.77;;;6.10;;
57746;SDS011;43580;44.014;20.466;2023-11-19T01:32:50;11.00;;;6.43;;
57746;SDS011;43580;44.014;20.466;2023-11-19T01:35:16;13.75;;;6.68;;
57746;SDS011;43580;44.014;20.466;2023-11-19T01:37:42;12.70;;;6.65;;
57746;SDS011;43580;44.014;20.466;2023-11-19T01:40:09;11.13;;;6.95;;
57746;SDS011;43580;44.014;20.466;2023-11-19T01:42:39;9.75;;;6.00;;
57746;SDS011;43580;44.014;20.466;2023-11-19T01:45:06;9.88;;;5.57;;
57746;SDS011;43580;44.014;20.466;2023-11-19T01:47:34;10.02;;;5.65;;
57746;SDS011;43580;44.014;20.466;2023-11-19T01:50:03;9.77;;;5.18;;
57746;SDS011;43580;44.014;20.466;2023-11-19T01:52:34;10.27;;;6.13;;
57746;SDS011;43580;44.014;20.466;2023-11-19T01:55:02;8.77;;;5.78;;
57746;SDS011;43580;44.014;20.466;2023-11-19T01:57:28;10.63;;;5.95;;
57746;SDS011;43580;44.014;20.466;2023-11-19T01:59:54;11.27;;;5.93;;
57746;SDS011;43580;44.014;20.466;2023-11-19T02:02:25;12.23;;;5.80;;
57746;SDS011;43580;44.014;20.466;2023-11-19T02:04:51;8.27;;;5.43;;
57746;SDS011;43580;44.014;20.466;2023-11-19T02:07:18;10.98;;;6.43;;
57746;SDS011;43580;44.014;20.466;2023-11-19T02:09:44;11.23;;;7.13;;
57746;SDS011;43580;44.014;20.466;2023-11-19T02:12:10;9.20;;;5.85;;
57746;SDS011;43580;44.014;20.466;2023-11-19T02:14:37;9.00;;;6.18;;
57746;SDS011;43580;44.014;20.466;2023-11-19T02:17:03;9.75;;;6.00;;
57746;SDS011;43580;44.014;20.466;2023-11-19T02:19:32;7.95;;;5.30;;
57746;SDS011;43580;44.014;20.466;2023-11-19T02:21:58;13.13;;;7.10;;
57746;SDS011;43580;44.014;20.466;2023-11-19T02:24:25;15.85;;;7.70;;
57746;SDS011;43580;44.014;20.466;2023-11-19T02:29:23;13.75;;;6.88;;
57746;SDS011;43580;44.014;20.466;2023-11-19T02:31:49;9.57;;;5.75;;
57746;SDS011;43580;44.014;20.466;2023-11-19T02:34:15;10.82;;;5.80;;
57746;SDS011;43580;44.014;20.466;2023-11-19T02:36:41;11.32;;;6.43;;
57746;SDS011;43580;44.014;20.466;2023-11-19T02:39:12;11.55;;;6.50;;
57746;SDS011;43580;44.014;20.466;2023-11-19T02:41:38;11.80;;;6.25;;
57746;SDS011;43580;44.014;20.466;2023-11-19T02:44:05;9.80;;;5.50;;
57746;SDS011;43580;44.014;20.466;2023-11-19T02:46:31;9.32;;;6.25;;
57746;SDS011;43580;44.014;20.466;2023-11-19T02:48:57;9.68;;;6.05;;
57746;SDS011;43580;44.014;20.466;2023-11-19T02:51:23;10.13;;;5.50;;
57746;SDS011;43580;44.014;20.466;2023-11-19T02:53:49;11.77;;;6.30;;
57746;SDS011;43580;44.014;20.466;2023-11-19T02:56:16;9.93;;;5.82;;
57746;SDS011;43580;44.014;20.466;2023-11-19T02:58:50;9.57;;;6.50;;
57746;SDS011;43580;44.014;20.466;2023-11-19T03:01:25;9.55;;;6.15;;
57746;SDS011;43580;44.014;20.466;2023-11-19T03:03:59;10.00;;;6.00;;
57746;SDS011;43580;44.014;20.466;2023-11-19T03:06:29;8.70;;;5.03;;
57746;SDS011;43580;44.014;20.466;2023-11-19T03:08:55;7.85;;;5.45;;
57746;SDS011;43580;44.014;20.466;2023-11-19T03:11:21;9.82;;;6.05;;
57746;SDS011;43580;44.014;20.466;2023-11-19T03:13:50;9.95;;;6.32;;
57746;SDS011;43580;44.014;20.466;2023-11-19T03:16:16;9.00;;;5.72;;
57746;SDS011;43580;44.014;20.466;2023-11-19T03:18:45;8.05;;;5.30;;
57746;SDS011;43580;44.014;20.466;2023-11-19T03:21:11;12.65;;;7.30;;
57746;SDS011;43580;44.014;20.466;2023-11-19T03:23:39;12.30;;;8.20;;
57746;SDS011;43580;44.014;20.466;2023-11-19T03:26:10;9.80;;;5.78;;
57746;SDS011;43580;44.014;20.466;2023-11-19T03:28:36;9.20;;;5.88;;
57746;SDS011;43580;44.014;20.466;2023-11-19T03:31:06;9.05;;;5.95;;
57746;SDS011;43580;44.014;20.466;2023-11-19T03:33:34;8.27;;;5.20;;
57746;SDS011;43580;44.014;20.466;2023-11-19T03:36:01;9.55;;;6.07;;
57746;SDS011;43580;44.014;20.466;2023-11-19T03:38:27;8.38;;;5.90;;
57746;SDS011;43580;44.014;20.466;2023-11-19T03:40:53;14.90;;;7.53;;
57746;SDS011;43580;44.014;20.466;2023-11-19T03:43:19;10.82;;;6.30;;
57746;SDS011;43580;44.014;20.466;2023-11-19T03:45:45;10.45;;;6.15;;
57746;SDS011;43580;44.014;20.466;2023-11-19T03:48:11;8.68;;;5.75;;
57746;SDS011;43580;44.014;20.466;2023-11-19T03:50:37;11.52;;;7.07;;
57746;SDS011;43580;44.014;20.466;2023-11-19T03:53:03;9.82;;;6.10;;
57746;SDS011;43580;44.014;20.466;2023-11-19T03:55:29;9.05;;;5.95;;
57746;SDS011;43580;44.014;20.466;2023-11-19T03:57:56;9.15;;;5.80;;
57746;SDS011;43580;44.014;20.466;2023-11-19T04:00:22;9.18;;;5.32;;
57746;SDS011;43580;44.014;20.466;2023-11-19T04:02:48;9.02;;;5.75;;
57746;SDS011;43580;44.014;20.466;2023-11-19T04:05:14;9.32;;;5.70;;
57746;SDS011;43580;44.014;20.466;2023-11-19T04:07:40;11.00;;;6.40;;
57746;SDS011;43580;44.014;20.466;2023-11-19T04:10:06;9.50;;;5.65;;
57746;SDS011;43580;44.014;20.466;2023-11-19T04:12:33;8.05;;;5.63;;
57746;SDS011;43580;44.014;20.466;2023-11-19T04:14:59;7.78;;;5.43;;
57746;SDS011;43580;44.014;20.466;2023-11-19T04:17:25;9.25;;;5.82;;
57746;SDS011;43580;44.014;20.466;2023-11-19T04:19:51;9.65;;;6.15;;
57746;SDS011;43580;44.014;20.466;2023-11-19T04:22:17;10.82;;;6.40;;
57746;SDS011;43580;44.014;20.466;2023-11-19T04:24:43;11.63;;;6.20;;
57746;SDS011;43580;44.014;20.466;2023-11-19T04:27:10;9.43;;;5.50;;
57746;SDS011;43580;44.014;20.466;2023-11-19T04:29:36;7.65;;;4.85;;
57746;SDS011;43580;44.014;20.466;2023-11-19T04:32:02;10.85;;;5.85;;
57746;SDS011;43580;44.014;20.466;2023-11-19T04:34:31;11.82;;;5.47;;
57746;SDS011;43580;44.014;20.466;2023-11-19T04:37:00;8.30;;;5.53;;
57746;SDS011;43580;44.014;20.466;2023-11-19T04:39:27;9.70;;;6.07;;
57746;SDS011;43580;44.014;20.466;2023-11-19T04:41:53;9.48;;;5.47;;
57746;SDS011;43580;44.014;20.466;2023-11-19T04:44:24;8.45;;;5.65;;
57746;SDS011;43580;44.014;20.466;2023-11-19T04:46:50;9.52;;;5.55;;
57746;SDS011;43580;44.014;20.466;2023-11-19T04:49:19;9.90;;;5.90;;
57746;SDS011;43580;44.014;20.466;2023-11-19T04:51:45;8.32;;;5.32;;
57746;SDS011;43580;44.014;20.466;2023-11-19T04:54:16;11.23;;;6.10;;
57746;SDS011;43580;44.014;20.466;2023-11-19T04:56:47;8.68;;;5.55;;
57746;SDS011;43580;44.014;20.466;2023-11-19T04:59:13;8.30;;;5.13;;
57746;SDS011;43580;44.014;20.466;2023-11-19T05:01:40;10.20;;;6.03;;
57746;SDS011;43580;44.014;20.466;2023-11-19T05:04:07;10.80;;;5.50;;
57746;SDS011;43580;44.014;20.466;2023-11-19T05:06:33;9.55;;;5.80;;
57746;SDS011;43580;44.014;20.466;2023-11-19T05:09:00;8.80;;;5.18;;
57746;SDS011;43580;44.014;20.466;2023-11-19T05:11:26;11.80;;;6.03;;
57746;SDS011;43580;44.014;20.466;2023-11-19T05:13:53;9.80;;;5.65;;
57746;SDS011;43580;44.014;20.466;2023-11-19T05:16:19;7.63;;;4.90;;
57746;SDS011;43580;44.014;20.466;2023-11-19T05:18:46;91.05;;;44.20;;
57746;SDS011;43580;44.014;20.466;2023-11-19T05:21:12;61.90;;;30.80;;
57746;SDS011;43580;44.014;20.466;2023-11-19T05:23:38;43.08;;;22.08;;
57746;SDS011;43580;44.014;20.466;2023-11-19T05:26:06;15.63;;;8.30;;
57746;SDS011;43580;44.014;20.466;2023-11-19T05:28:33;15.25;;;8.45;;
57746;SDS011;43580;44.014;20.466;2023-11-19T05:30:59;35.63;;;19.15;;
57746;SDS011;43580;44.014;20.466;2023-11-19T05:33:25;20.92;;;10.80;;
57746;SDS011;43580;44.014;20.466;2023-11-19T05:35:51;14.20;;;9.10;;
57746;SDS011;43580;44.014;20.466;2023-11-19T05:38:17;16.50;;;8.70;;
57746;SDS011;43580;44.014;20.466;2023-11-19T05:40:43;21.08;;;11.35;;
57746;SDS011;43580;44.014;20.466;2023-11-19T05:43:10;24.80;;;13.68;;
57746;SDS011;43580;44.014;20.466;2023-11-19T05:45:36;16.48;;;8.60;;
57746;SDS011;43580;44.014;20.466;2023-11-19T05:48:02;9.48;;;6.03;;
57746;SDS011;43580;44.014;20.466;2023-11-19T05:50:29;10.90;;;7.00;;
57746;SDS011;43580;44.014;20.466;2023-11-19T05:52:55;10.32;;;5.85;;
57746;SDS011;43580;44.014;20.466;2023-11-19T05:55:24;10.60;;;6.82;;
57746;SDS011;43580;44.014;20.466;2023-11-19T05:57:52;16.25;;;7.47;;
57746;SDS011;43580;44.014;20.466;2023-11-19T06:00:19;11.05;;;6.82;;
57746;SDS011;43580;44.014;20.466;2023-11-19T06:02:45;16.88;;;10.20;;
57746;SDS011;43580;44.014;20.466;2023-11-19T06:05:11;14.40;;;8.93;;
57746;SDS011;43580;44.014;20.466;2023-11-19T06:07:37;10.07;;;6.78;;
57746;SDS011;43580;44.014;20.466;2023-11-19T06:10:04;13.75;;;8.10;;
57746;SDS011;43580;44.014;20.466;2023-11-19T06:12:32;15.20;;;7.50;;
57746;SDS011;43580;44.014;20.466;2023-11-19T06:14:59;13.07;;;8.25;;
57746;SDS011;43580;44.014;20.466;2023-11-19T06:17:25;14.30;;;9.02;;
57746;SDS011;43580;44.014;20.466;2023-11-19T06:19:52;38.67;;;18.58;;
57746;SDS011;43580;44.014;20.466;2023-11-19T06:22:18;26.90;;;15.43;;
57746;SDS011;43580;44.014;20.466;2023-11-19T06:24:44;65.45;;;37.72;;
57746;SDS011;43580;44.014;20.466;2023-11-19T06:27:15;29.85;;;17.33;;
57746;SDS011;43580;44.014;20.466;2023-11-19T06:29:44;28.48;;;14.43;;
57746;SDS011;43580;44.014;20.466;2023-11-19T06:32:10;17.48;;;10.70;;
57746;SDS011;43580;44.014;20.466;2023-11-19T06:34:37;28.15;;;16.80;;
57746;SDS011;43580;44.014;20.466;2023-11-19T06:37:03;33.50;;;20.67;;
57746;SDS011;43580;44.014;20.466;2023-11-19T06:39:29;31.30;;;17.08;;
57746;SDS011;43580;44.014;20.466;2023-11-19T06:42:00;32.88;;;19.52;;
57746;SDS011;43580;44.014;20.466;2023-11-19T06:44:27;35.90;;;21.33;;
57746;SDS011;43580;44.014;20.466;2023-11-19T06:46:53;42.40;;;24.73;;
57746;SDS011;43580;44.014;20.466;2023-11-19T06:49:19;40.03;;;24.08;;
57746;SDS011;43580;44.014;20.466;2023-11-19T06:51:50;56.05;;;30.40;;
57746;SDS011;43580;44.014;20.466;2023-11-19T06:54:21;67.82;;;31.50;;
57746;SDS011;43580;44.014;20.466;2023-11-19T06:56:48;34.78;;;20.83;;
57746;SDS011;43580;44.014;20.466;2023-11-19T06:59:15;39.55;;;21.27;;
57746;SDS011;43580;44.014;20.466;2023-11-19T07:01:41;13.18;;;7.70;;
57746;SDS011;43580;44.014;20.466;2023-11-19T07:04:13;12.75;;;7.57;;
57746;SDS011;43580;44.014;20.466;2023-11-19T07:06:39;10.00;;;5.60;;
57746;SDS011;43580;44.014;20.466;2023-11-19T07:09:08;9.00;;;6.15;;
57746;SDS011;43580;44.014;20.466;2023-11-19T07:11:38;13.68;;;6.05;;
57746;SDS011;43580;44.014;20.466;2023-11-19T07:14:04;9.07;;;6.68;;
57746;SDS011;43580;44.014;20.466;2023-11-19T07:16:34;7.85;;;5.35;;
57746;SDS011;43580;44.014;20.466;2023-11-19T07:19:02;8.40;;;5.55;;
57746;SDS011;43580;44.014;20.466;2023-11-19T07:21:28;9.05;;;4.90;;
57746;SDS011;43580;44.014;20.466;2023-11-19T07:23:55;16.67;;;9.55;;
57746;SDS011;43580;44.014;20.466;2023-11-19T07:26:21;13.90;;;8.63;;
57746;SDS011;43580;44.014;20.466;2023-11-19T07:28:47;11.15;;;7.85;;
57746;SDS011;43580;44.014;20.466;2023-11-19T07:31:13;14.30;;;9.57;;
57746;SDS011;43580;44.014;20.466;2023-11-19T07:33:40;20.85;;;12.27;;
57746;SDS011;43580;44.014;20.466;2023-11-19T07:36:09;40.50;;;19.70;;
57746;SDS011;43580;44.014;20.466;2023-11-19T07:38:36;12.18;;;7.20;;
57746;SDS011;43580;44.014;20.466;2023-11-19T07:41:07;14.18;;;8.30;;
57746;SDS011;43580;44.014;20.466;2023-11-19T07:43:39;11.57;;;6.70;;
57746;SDS011;43580;44.014;20.466;2023-11-19T07:46:10;8.85;;;4.82;;
57746;SDS011;43580;44.014;20.466;2023-11-19T07:48:38;7.38;;;5.72;;
57746;SDS011;43580;44.014;20.466;2023-11-19T07:51:04;14.60;;;10.35;;
57746;SDS011;43580;44.014;20.466;2023-11-19T07:53:30;10.10;;;6.68;;
57746;SDS011;43580;44.014;20.466;2023-11-19T07:55:57;9.70;;;5.55;;
57746;SDS011;43580;44.014;20.466;2023-11-19T07:58:27;11.63;;;7.45;;
57746;SDS011;43580;44.014;20.466;2023-11-19T08:00:53;14.40;;;8.23;;
57746;SDS011;43580;44.014;20.466;2023-11-19T08:03:19;11.63;;;6.70;;
57746;SDS011;43580;44.014;20.466;2023-11-19T08:05:48;9.45;;;5.20;;
57746;SDS011;43580;44.014;20.466;2023-11-19T08:08:16;7.35;;;3.72;;
57746;SDS011;43580;44.014;20.466;2023-11-19T08:10:45;6.32;;;4.22;;
57746;SDS011;43580;44.014;20.466;2023-11-19T08:13:12;5.53;;;3.80;;
57746;SDS011;43580;44.014;20.466;2023-11-19T08:15:41;16.17;;;8.05;;
57746;SDS011;43580;44.014;20.466;2023-11-19T08:18:07;5.00;;;3.40;;
57746;SDS011;43580;44.014;20.466;2023-11-19T08:20:34;10.57;;;6.00;;
57746;SDS011;43580;44.014;20.466;2023-11-19T08:23:02;14.48;;;7.75;;
57746;SDS011;43580;44.014;20.466;2023-11-19T08:25:40;10.77;;;6.00;;
57746;SDS011;43580;44.014;20.466;2023-11-19T08:28:06;8.63;;;5.10;;
57746;SDS011;43580;44.014;20.466;2023-11-19T08:30:33;9.50;;;6.18;;
57746;SDS011;43580;44.014;20.466;2023-11-19T08:33:01;13.25;;;8.40;;
57746;SDS011;43580;44.014;20.466;2023-11-19T08:35:32;12.45;;;6.80;;
57746;SDS011;43580;44.014;20.466;2023-11-19T08:37:58;21.50;;;18.15;;
57746;SDS011;43580;44.014;20.466;2023-11-19T08:40:24;5.47;;;4.00;;
57746;SDS011;43580;44.014;20.466;2023-11-19T08:42:54;11.15;;;6.65;;
57746;SDS011;43580;44.014;20.466;2023-11-19T08:45:21;7.57;;;5.40;;
57746;SDS011;43580;44.014;20.466;2023-11-19T08:47:47;13.32;;;6.97;;
57746;SDS011;43580;44.014;20.466;2023-11-19T08:50:13;17.83;;;11.07;;
57746;SDS011;43580;44.014;20.466;2023-11-19T08:52:39;17.33;;;11.18;;
57746;SDS011;43580;44.014;20.466;2023-11-19T08:55:05;16.05;;;10.48;;
57746;SDS011;43580;44.014;20.466;2023-11-19T08:57:31;22.27;;;12.82;;
57746;SDS011;43580;44.014;20.466;2023-11-19T08:59:58;13.85;;;8.13;;
57746;SDS011;43580;44.014;20.466;2023-11-19T09:02:24;11.50;;;7.05;;
57746;SDS011;43580;44.014;20.466;2023-11-19T09:04:53;11.38;;;7.32;;
57746;SDS011;43580;44.014;20.466;2023-11-19T09:07:19;10.73;;;7.20;;
57746;SDS011;43580;44.014;20.466;2023-11-19T09:09:47;7.60;;;4.35;;
57746;SDS011;43580;44.014;20.466;2023-11-19T09:12:13;7.13;;;4.47;;
57746;SDS011;43580;44.014;20.466;2023-11-19T09:14:39;5.97;;;4.68;;
57746;SDS011;43580;44.014;20.466;2023-11-19T09:17:07;8.52;;;4.93;;
57746;SDS011;43580;44.014;20.466;2023-11-19T09:19:37;15.30;;;9.02;;
57746;SDS011;43580;44.014;20.466;2023-11-19T09:22:04;9.48;;;5.53;;
57746;SDS011;43580;44.014;20.466;2023-11-19T09:24:30;6.93;;;4.55;;
57746;SDS011;43580;44.014;20.466;2023-11-19T09:26:56;8.63;;;4.40;;
57746;SDS011;43580;44.014;20.466;2023-11-19T09:29:22;8.73;;;5.90;;
57746;SDS011;43580;44.014;20.466;2023-11-19T09:31:48;9.48;;;5.30;;
57746;SDS011;43580;44.014;20.466;2023-11-19T09:34:14;7.63;;;4.78;;
57746;SDS011;43580;44.014;20.466;2023-11-19T09:36:43;10.48;;;6.63;;
57746;SDS011;43580;44.014;20.466;2023-11-19T09:39:12;13.73;;;7.80;;
57746;SDS011;43580;44.014;20.466;2023-11-19T09:41:43;18.27;;;12.45;;
57746;SDS011;43580;44.014;20.466;2023-11-19T09:44:14;16.15;;;11.77;;
57746;SDS011;43580;44.014;20.466;2023-11-19T09:46:43;7.45;;;4.55;;
57746;SDS011;43580;44.014;20.466;2023-11-19T09:49:13;9.82;;;7.05;;
57746;SDS011;43580;44.014;20.466;2023-11-19T09:51:45;9.40;;;5.57;;
57746;SDS011;43580;44.014;20.466;2023-11-19T09:54:11;16.83;;;8.73;;
57746;SDS011;43580;44.014;20.466;2023-11-19T09:56:38;13.82;;;8.50;;
57746;SDS011;43580;44.014;20.466;2023-11-19T09:59:04;17.88;;;10.98;;
57746;SDS011;43580;44.014;20.466;2023-11-19T10:01:35;9.50;;;7.07;;
57746;SDS011;43580;44.014;20.466;2023-11-19T10:04:01;12.27;;;9.70;;
57746;SDS011;43580;44.014;20.466;2023-11-19T10:06:27;12.80;;;8.20;;
57746;SDS011;43580;44.014;20.466;2023-11-19T10:08:53;6.65;;;4.10;;
57746;SDS011;43580;44.014;20.466;2023-11-19T10:11:20;7.55;;;4.78;;
57746;SDS011;43580;44.014;20.466;2023-11-19T10:13:49;5.45;;;3.58;;
57746;SDS011;43580;44.014;20.466;2023-11-19T10:16:17;7.03;;;4.15;;
57746;SDS011;43580;44.014;20.466;2023-11-19T10:18:47;6.50;;;4.10;;
57746;SDS011;43580;44.014;20.466;2023-11-19T10:21:14;10.48;;;6.20;;
57746;SDS011;43580;44.014;20.466;2023-11-19T10:23:49;11.57;;;7.50;;
57746;SDS011;43580;44.014;20.466;2023-11-19T10:26:16;19.10;;;10.15;;
57746;SDS011;43580;44.014;20.466;2023-11-19T10:28:43;7.32;;;4.35;;
57746;SDS011;43580;44.014;20.466;2023-11-19T10:31:11;8.93;;;5.15;;
57746;SDS011;43580;44.014;20.466;2023-11-19T10:33:38;14.13;;;6.53;;
57746;SDS011;43580;44.014;20.466;2023-11-19T10:36:04;15.68;;;6.80;;
57746;SDS011;43580;44.014;20.466;2023-11-19T10:38:30;15.35;;;7.18;;
57746;SDS011;43580;44.014;20.466;2023-11-19T10:40:56;8.25;;;4.10;;
57746;SDS011;43580;44.014;20.466;2023-11-19T10:43:22;7.10;;;4.07;;
57746;SDS011;43580;44.014;20.466;2023-11-19T10:45:52;13.68;;;6.35;;
57746;SDS011;43580;44.014;20.466;2023-11-19T10:48:18;30.92;;;15.75;;
57746;SDS011;43580;44.014;20.466;2023-11-19T10:50:49;4.53;;;3.28;;
57746;SDS011;43580;44.014;20.466;2023-11-19T10:53:20;13.10;;;8.38;;
57746;SDS011;43580;44.014;20.466;2023-11-19T10:55:51;6.78;;;4.15;;
57746;SDS011;43580;44.014;20.466;2023-11-19T10:58:23;9.18;;;6.30;;
57746;SDS011;43580;44.014;20.466;2023-11-19T11:00:55;14.82;;;9.18;;
57746;SDS011;43580;44.014;20.466;2023-11-19T11:03:26;6.70;;;4.18;;
57746;SDS011;43580;44.014;20.466;2023-11-19T11:05:55;4.82;;;3.05;;
57746;SDS011;43580;44.014;20.466;2023-11-19T11:08:23;7.30;;;4.38;;
57746;SDS011;43580;44.014;20.466;2023-11-19T11:13:16;8.15;;;5.97;;
57746;SDS011;43580;44.014;20.466;2023-11-19T11:15:43;9.13;;;5.75;;
57746;SDS011;43580;44.014;20.466;2023-11-19T11:18:11;7.80;;;4.93;;
57746;SDS011;43580;44.014;20.466;2023-11-19T11:20:38;6.20;;;4.25;;
57746;SDS011;43580;44.014;20.466;2023-11-19T11:30:39;19.15;;;8.00;;
57746;SDS011;43580;44.014;20.466;2023-11-19T11:36:03;4.85;;;3.00;;
57746;SDS011;43580;44.014;20.466;2023-11-19T11:43:44;8.93;;;5.45;;
57746;SDS011;43580;44.014;20.466;2023-11-19T11:49:05;13.05;;;7.68;;
57746;SDS011;43580;44.014;20.466;2023-11-19T11:54:10;13.13;;;8.00;;
57746;SDS011;43580;44.014;20.466;2023-11-19T11:56:38;15.65;;;9.38;;
57746;SDS011;43580;44.014;20.466;2023-11-19T11:59:08;12.27;;;7.45;;
57746;SDS011;43580;44.014;20.466;2023-11-19T12:01:37;15.90;;;8.35;;
57746;SDS011;43580;44.014;20.466;2023-11-19T12:04:04;8.60;;;4.45;;
57746;SDS011;43580;44.014;20.466;2023-11-19T12:06:31;10.23;;;5.35;;
57746;SDS011;43580;44.014;20.466;2023-11-19T12:09:01;10.40;;;6.00;;
57746;SDS011;43580;44.014;20.466;2023-11-19T12:11:28;8.68;;;5.68;;
57746;SDS011;43580;44.014;20.466;2023-11-19T12:13:57;12.45;;;7.90;;
57746;SDS011;43580;44.014;20.466;2023-11-19T12:16:27;17.27;;;10.98;;
57746;SDS011;43580;44.014;20.466;2023-11-19T12:18:54;20.63;;;12.15;;
57746;SDS011;43580;44.014;20.466;2023-11-19T12:21:29;23.05;;;12.75;;
57746;SDS011;43580;44.014;20.466;2023-11-19T12:23:55;22.23;;;12.00;;
57746;SDS011;43580;44.014;20.466;2023-11-19T12:26:34;40.72;;;17.60;;
57746;SDS011;43580;44.014;20.466;2023-11-19T12:29:00;16.23;;;8.88;;
57746;SDS011;43580;44.014;20.466;2023-11-19T12:31:28;37.20;;;17.15;;
57746;SDS011;43580;44.014;20.466;2023-11-19T12:33:55;28.55;;;15.15;;
57746;SDS011;43580;44.014;20.466;2023-11-19T12:36:21;13.13;;;8.88;;
57746;SDS011;43580;44.014;20.466;2023-11-19T12:38:48;19.10;;;12.57;;
57746;SDS011;43580;44.014;20.466;2023-11-19T12:41:14;15.07;;;9.82;;
57746;SDS011;43580;44.014;20.466;2023-11-19T12:43:45;31.10;;;15.80;;
57746;SDS011;43580;44.014;20.466;2023-11-19T12:46:18;34.05;;;16.17;;
57746;SDS011;43580;44.014;20.466;2023-11-19T12:51:12;8.80;;;4.93;;
57746;SDS011;43580;44.014;20.466;2023-11-19T12:56:19;20.27;;;10.98;;
57746;SDS011;43580;44.014;20.466;2023-11-19T12:58:46;15.05;;;8.48;;
57746;SDS011;43580;44.014;20.466;2023-11-19T13:01:18;13.13;;;8.05;;
57746;SDS011;43580;44.014;20.466;2023-11-19T13:03:46;24.50;;;15.02;;
57746;SDS011;43580;44.014;20.466;2023-11-19T13:06:16;73.13;;;56.70;;
57746;SDS011;43580;44.014;20.466;2023-11-19T13:08:45;25.90;;;14.60;;
57746;SDS011;43580;44.014;20.466;2023-11-19T13:11:12;33.20;;;18.20;;
57746;SDS011;43580;44.014;20.466;2023-11-19T13:16:19;24.50;;;13.48;;
57746;SDS011;43580;44.014;20.466;2023-11-19T13:18:46;10.35;;;6.53;;
57746;SDS011;43580;44.014;20.466;2023-11-19T13:21:12;16.25;;;11.52;;
57746;SDS011;43580;44.014;20.466;2023-11-19T13:23:38;13.07;;;8.52;;
57746;SDS011;43580;44.014;20.466;2023-11-19T13:26:04;14.55;;;10.43;;
57746;SDS011;43580;44.014;20.466;2023-11-19T13:28:30;31.15;;;19.45;;
57746;SDS011;43580;44.014;20.466;2023-11-19T13:30:59;20.40;;;12.35;;
57746;SDS011;43580;44.014;20.466;2023-11-19T13:33:25;43.08;;;23.67;;
57746;SDS011;43580;44.014;20.466;2023-11-19T13:35:51;24.63;;;13.90;;
57746;SDS011;43580;44.014;20.466;2023-11-19T13:38:18;12.32;;;7.10;;
57746;SDS011;43580;44.014;20.466;2023-11-19T13:40:48;16.17;;;9.93;;
57746;SDS011;43580;44.014;20.466;2023-11-19T13:43:14;10.40;;;6.60;;
57746;SDS011;43580;44.014;20.466;2023-11-19T13:45:40;10.05;;;5.95;;
57746;SDS011;43580;44.014;20.466;2023-11-19T13:48:11;8.63;;;5.78;;
57746;SDS011;43580;44.014;20.466;2023-11-19T13:50:37;17.73;;;9.13;;
57746;SDS011;43580;44.014;20.466;2023-11-19T13:53:03;35.80;;;19.65;;
57746;SDS011;43580;44.014;20.466;2023-11-19T13:55:30;21.25;;;9.30;;
57746;SDS011;43580;44.014;20.466;2023-11-19T13:57:56;25.52;;;13.52;;
57746;SDS011;43580;44.014;20.466;2023-11-19T14:00:22;22.65;;;10.82;;
57746;SDS011;43580;44.014;20.466;2023-11-19T14:02:49;27.30;;;11.93;;
57746;SDS011;43580;44.014;20.466;2023-11-19T14:05:15;64.30;;;33.90;;
57746;SDS011;43580;44.014;20.466;2023-11-19T14:07:42;58.33;;;31.45;;
57746;SDS011;43580;44.014;20.466;2023-11-19T14:10:09;157.35;;;81.57;;
57746;SDS011;43580;44.014;20.466;2023-11-19T14:12:38;40.28;;;21.90;;
57746;SDS011;43580;44.014;20.466;2023-11-19T14:15:08;32.38;;;17.13;;
57746;SDS011;43580;44.014;20.466;2023-11-19T14:17:34;20.85;;;13.07;;
57746;SDS011;43580;44.014;20.466;2023-11-19T14:20:01;24.27;;;15.55;;
57746;SDS011;43580;44.014;20.466;2023-11-19T14:22:30;31.90;;;18.85;;
57746;SDS011;43580;44.014;20.466;2023-11-19T14:24:56;30.45;;;16.17;;
57746;SDS011;43580;44.014;20.466;2023-11-19T14:27:24;30.35;;;16.13;;
57746;SDS011;43580;44.014;20.466;2023-11-19T14:29:53;21.05;;;12.88;;
57746;SDS011;43580;44.014;20.466;2023-11-19T14:32:21;33.17;;;19.35;;
57746;SDS011;43580;44.014;20.466;2023-11-19T14:34:47;96.05;;;53.92;;
57746;SDS011;43580;44.014;20.466;2023-11-19T14:37:13;72.15;;;39.95;;
57746;SDS011;43580;44.014;20.466;2023-11-19T14:39:39;48.53;;;33.97;;
57746;SDS011;43580;44.014;20.466;2023-11-19T14:42:05;33.90;;;22.67;;
57746;SDS011;43580;44.014;20.466;2023-11-19T14:44:32;28.40;;;18.70;;
57746;SDS011;43580;44.014;20.466;2023-11-19T14:47:01;26.25;;;17.38;;
57746;SDS011;43580;44.014;20.466;2023-11-19T14:49:27;24.20;;;17.25;;
57746;SDS011;43580;44.014;20.466;2023-11-19T14:51:54;27.70;;;16.33;;
57746;SDS011;43580;44.014;20.466;2023-11-19T14:54:20;38.88;;;20.77;;
57746;SDS011;43580;44.014;20.466;2023-11-19T14:56:46;54.38;;;23.80;;
57746;SDS011;43580;44.014;20.466;2023-11-19T14:59:12;54.20;;;29.50;;